sensor_id;sensor_type;location;lat;lon;timestamp;P1;durP1;ratioP1;P2;durP2;ratioP2
27642;SDS011;15053;48.618;10.024;2022-09-30T00:01:12;105.45;;;16.83;;
27642;SDS011;15053;48.618;10.024;2022-09-30T00:03:39;74.28;;;15.27;;
27642;SDS011;15053;48.618;10.024;2022-09-30T00:06:06;108.30;;;15.65;;
27642;SDS011;15053;48.618;10.024;2022-09-30T00:08:35;88.35;;;15.85;;
27642;SDS011;15053;48.618;10.024;2022-09-30T00:11:03;77.85;;;13.57;;
27642;SDS011;15053;48.618;10.024;2022-09-30T00:13:39;39.17;;;12.30;;
27642;SDS011;15053;48.618;10.024;2022-09-30T00:16:06;57.17;;;14.30;;
27642;SDS011;15053;48.618;10.024;2022-09-30T00:18:35;35.83;;;13.00;;
27642;SDS011;15053;48.618;10.024;2022-09-30T00:21:03;63.75;;;13.35;;
27642;SDS011;15053;48.618;10.024;2022-09-30T00:23:30;35.38;;;11.15;;
27642;SDS011;15053;48.618;10.024;2022-09-30T00:25:58;49.75;;;12.68;;
27642;SDS011;15053;48.618;10.024;2022-09-30T00:28:26;42.15;;;12.43;;
27642;SDS011;15053;48.618;10.024;2022-09-30T00:30:58;44.78;;;11.93;;
27642;SDS011;15053;48.618;10.024;2022-09-30T00:33:25;30.42;;;10.82;;
27642;SDS011;15053;48.618;10.024;2022-09-30T00:35:52;79.30;;;13.27;;
27642;SDS011;15053;48.618;10.024;2022-09-30T00:38:19;58.60;;;13.32;;
27642;SDS011;15053;48.618;10.024;2022-09-30T00:40:45;44.20;;;11.40;;
27642;SDS011;15053;48.618;10.024;2022-09-30T00:43:13;104.78;;;13.57;;
27642;SDS011;15053;48.618;10.024;2022-09-30T00:45:55;95.22;;;11.32;;
27642;SDS011;15053;48.618;10.024;2022-09-30T00:48:27;38.85;;;10.00;;
27642;SDS011;15053;48.618;10.024;2022-09-30T00:50:58;46.72;;;11.35;;
27642;SDS011;15053;48.618;10.024;2022-09-30T00:53:29;93.28;;;12.13;;
27642;SDS011;15053;48.618;10.024;2022-09-30T00:58:34;111.30;;;13.38;;
27642;SDS011;15053;48.618;10.024;2022-09-30T01:01:03;127.20;;;12.75;;
27642;SDS011;15053;48.618;10.024;2022-09-30T01:03:31;159.60;;;13.85;;
27642;SDS011;15053;48.618;10.024;2022-09-30T01:06:02;187.20;;;14.10;;
27642;SDS011;15053;48.618;10.024;2022-09-30T01:08:29;106.65;;;11.10;;
27642;SDS011;15053;48.618;10.024;2022-09-30T01:11:00;71.30;;;11.20;;
27642;SDS011;15053;48.618;10.024;2022-09-30T01:13:33;107.75;;;10.88;;
27642;SDS011;15053;48.618;10.024;2022-09-30T01:16:12;106.00;;;11.25;;
27642;SDS011;15053;48.618;10.024;2022-09-30T01:18:53;110.13;;;11.95;;
27642;SDS011;15053;48.618;10.024;2022-09-30T01:21:29;79.43;;;10.00;;
27642;SDS011;15053;48.618;10.024;2022-09-30T01:35:33;67.32;;;8.93;;
27642;SDS011;15053;48.618;10.024;2022-09-30T01:41:05;18.25;;;7.55;;
27642;SDS011;15053;48.618;10.024;2022-09-30T01:43:38;32.58;;;7.32;;
27642;SDS011;15053;48.618;10.024;2022-09-30T01:46:23;40.75;;;7.85;;
27642;SDS011;15053;48.618;10.024;2022-09-30T01:51:38;21.40;;;6.65;;
27642;SDS011;15053;48.618;10.024;2022-09-30T01:54:19;18.95;;;7.45;;
27642;SDS011;15053;48.618;10.024;2022-09-30T01:57:00;11.05;;;7.43;;
27642;SDS011;15053;48.618;10.024;2022-09-30T01:59:36;15.48;;;7.70;;
27642;SDS011;15053;48.618;10.024;2022-09-30T02:02:20;12.40;;;7.80;;
27642;SDS011;15053;48.618;10.024;2022-09-30T02:04:51;17.40;;;8.00;;
27642;SDS011;15053;48.618;10.024;2022-09-30T02:07:25;43.03;;;10.38;;
27642;SDS011;15053;48.618;10.024;2022-09-30T02:12:34;26.42;;;7.95;;
27642;SDS011;15053;48.618;10.024;2022-09-30T02:15:08;41.15;;;8.80;;
27642;SDS011;15053;48.618;10.024;2022-09-30T02:17:44;49.33;;;10.90;;
27642;SDS011;15053;48.618;10.024;2022-09-30T02:20:18;16.25;;;9.02;;
27642;SDS011;15053;48.618;10.024;2022-09-30T02:23:01;19.40;;;8.40;;
27642;SDS011;15053;48.618;10.024;2022-09-30T02:25:32;15.52;;;8.48;;
27642;SDS011;15053;48.618;10.024;2022-09-30T02:28:05;14.77;;;8.10;;
27642;SDS011;15053;48.618;10.024;2022-09-30T02:30:37;22.50;;;9.32;;
27642;SDS011;15053;48.618;10.024;2022-09-30T02:33:10;66.63;;;11.20;;
27642;SDS011;15053;48.618;10.024;2022-09-30T02:35:42;17.17;;;7.97;;
27642;SDS011;15053;48.618;10.024;2022-09-30T02:38:15;16.95;;;6.78;;
27642;SDS011;15053;48.618;10.024;2022-09-30T02:43:13;29.73;;;8.30;;
27642;SDS011;15053;48.618;10.024;2022-09-30T02:45:42;48.08;;;8.73;;
27642;SDS011;15053;48.618;10.024;2022-09-30T02:48:18;44.05;;;7.82;;
27642;SDS011;15053;48.618;10.024;2022-09-30T02:53:37;45.78;;;7.90;;
27642;SDS011;15053;48.618;10.024;2022-09-30T02:56:29;53.55;;;7.40;;
27642;SDS011;15053;48.618;10.024;2022-09-30T02:59:11;15.43;;;6.15;;
27642;SDS011;15053;48.618;10.024;2022-09-30T03:01:37;44.63;;;7.00;;
27642;SDS011;15053;48.618;10.024;2022-09-30T03:04:07;16.75;;;6.00;;
27642;SDS011;15053;48.618;10.024;2022-09-30T03:06:36;53.55;;;7.30;;
27642;SDS011;15053;48.618;10.024;2022-09-30T03:09:04;54.13;;;8.75;;
27642;SDS011;15053;48.618;10.024;2022-09-30T03:11:30;32.90;;;7.07;;
27642;SDS011;15053;48.618;10.024;2022-09-30T03:16:47;59.15;;;9.02;;
27642;SDS011;15053;48.618;10.024;2022-09-30T03:19:55;92.65;;;11.20;;
27642;SDS011;15053;48.618;10.024;2022-09-30T03:22:41;105.80;;;11.32;;
27642;SDS011;15053;48.618;10.024;2022-09-30T03:25:14;50.85;;;9.32;;
27642;SDS011;15053;48.618;10.024;2022-09-30T03:27:57;26.60;;;6.68;;
27642;SDS011;15053;48.618;10.024;2022-09-30T03:30:25;11.07;;;6.10;;
27642;SDS011;15053;48.618;10.024;2022-09-30T03:36:00;23.95;;;7.32;;
27642;SDS011;15053;48.618;10.024;2022-09-30T03:38:40;76.28;;;10.27;;
27642;SDS011;15053;48.618;10.024;2022-09-30T03:41:11;97.93;;;10.23;;
27642;SDS011;15053;48.618;10.024;2022-09-30T03:43:46;123.05;;;15.60;;
27642;SDS011;15053;48.618;10.024;2022-09-30T03:46:26;47.30;;;9.02;;
27642;SDS011;15053;48.618;10.024;2022-09-30T03:49:00;64.47;;;11.20;;
27642;SDS011;15053;48.618;10.024;2022-09-30T03:51:31;22.63;;;8.10;;
27642;SDS011;15053;48.618;10.024;2022-09-30T03:54:05;42.60;;;9.50;;
27642;SDS011;15053;48.618;10.024;2022-09-30T03:56:37;106.97;;;15.18;;
27642;SDS011;15053;48.618;10.024;2022-09-30T03:59:11;129.90;;;15.82;;
27642;SDS011;15053;48.618;10.024;2022-09-30T04:01:48;189.82;;;16.95;;
27642;SDS011;15053;48.618;10.024;2022-09-30T04:04:15;249.85;;;20.90;;
27642;SDS011;15053;48.618;10.024;2022-09-30T04:06:41;154.73;;;15.63;;
27642;SDS011;15053;48.618;10.024;2022-09-30T04:09:08;161.45;;;16.23;;
27642;SDS011;15053;48.618;10.024;2022-09-30T04:11:34;155.43;;;14.95;;
27642;SDS011;15053;48.618;10.024;2022-09-30T04:14:01;87.43;;;12.82;;
27642;SDS011;15053;48.618;10.024;2022-09-30T04:16:28;111.43;;;14.30;;
27642;SDS011;15053;48.618;10.024;2022-09-30T04:18:55;95.13;;;11.15;;
27642;SDS011;15053;48.618;10.024;2022-09-30T04:21:22;110.93;;;11.00;;
27642;SDS011;15053;48.618;10.024;2022-09-30T04:23:49;93.93;;;10.85;;
27642;SDS011;15053;48.618;10.024;2022-09-30T04:26:16;33.97;;;7.50;;
27642;SDS011;15053;48.618;10.024;2022-09-30T04:28:45;62.80;;;8.20;;
27642;SDS011;15053;48.618;10.024;2022-09-30T04:31:12;80.28;;;9.18;;
27642;SDS011;15053;48.618;10.024;2022-09-30T04:33:42;40.00;;;7.23;;
27642;SDS011;15053;48.618;10.024;2022-09-30T04:36:10;61.08;;;9.10;;
27642;SDS011;15053;48.618;10.024;2022-09-30T04:38:36;32.13;;;7.35;;
27642;SDS011;15053;48.618;10.024;2022-09-30T04:41:03;22.23;;;7.05;;
27642;SDS011;15053;48.618;10.024;2022-09-30T04:43:31;51.25;;;9.80;;
27642;SDS011;15053;48.618;10.024;2022-09-30T04:45:59;39.47;;;8.82;;
27642;SDS011;15053;48.618;10.024;2022-09-30T04:48:26;35.45;;;6.50;;
27642;SDS011;15053;48.618;10.024;2022-09-30T04:50:56;28.67;;;5.80;;
27642;SDS011;15053;48.618;10.024;2022-09-30T04:53:24;19.13;;;5.30;;
27642;SDS011;15053;48.618;10.024;2022-09-30T04:55:56;30.00;;;7.88;;
27642;SDS011;15053;48.618;10.024;2022-09-30T04:58:24;25.23;;;6.78;;
27642;SDS011;15053;48.618;10.024;2022-09-30T05:00:50;34.22;;;6.93;;
27642;SDS011;15053;48.618;10.024;2022-09-30T05:03:16;38.28;;;7.90;;
27642;SDS011;15053;48.618;10.024;2022-09-30T05:05:45;24.42;;;6.38;;
27642;SDS011;15053;48.618;10.024;2022-09-30T05:08:11;22.58;;;7.32;;
27642;SDS011;15053;48.618;10.024;2022-09-30T05:10:37;14.45;;;6.55;;
27642;SDS011;15053;48.618;10.024;2022-09-30T05:13:05;24.30;;;8.70;;
27642;SDS011;15053;48.618;10.024;2022-09-30T05:15:33;21.13;;;5.90;;
27642;SDS011;15053;48.618;10.024;2022-09-30T05:18:00;43.47;;;7.20;;
27642;SDS011;15053;48.618;10.024;2022-09-30T05:20:27;14.93;;;7.30;;
27642;SDS011;15053;48.618;10.024;2022-09-30T05:22:54;21.27;;;6.35;;
27642;SDS011;15053;48.618;10.024;2022-09-30T05:25:21;29.73;;;7.15;;
27642;SDS011;15053;48.618;10.024;2022-09-30T05:27:49;18.55;;;6.80;;
27642;SDS011;15053;48.618;10.024;2022-09-30T05:30:16;29.13;;;6.93;;
27642;SDS011;15053;48.618;10.024;2022-09-30T05:32:43;28.00;;;7.15;;
27642;SDS011;15053;48.618;10.024;2022-09-30T05:35:09;35.40;;;7.82;;
27642;SDS011;15053;48.618;10.024;2022-09-30T05:37:37;29.67;;;7.35;;
27642;SDS011;15053;48.618;10.024;2022-09-30T05:40:03;24.35;;;6.75;;
27642;SDS011;15053;48.618;10.024;2022-09-30T05:42:30;38.78;;;7.30;;
27642;SDS011;15053;48.618;10.024;2022-09-30T05:44:59;21.05;;;6.28;;
27642;SDS011;15053;48.618;10.024;2022-09-30T05:47:25;27.88;;;9.05;;
27642;SDS011;15053;48.618;10.024;2022-09-30T05:49:52;73.43;;;12.75;;
27642;SDS011;15053;48.618;10.024;2022-09-30T05:52:21;54.10;;;11.18;;
27642;SDS011;15053;48.618;10.024;2022-09-30T05:54:47;55.67;;;9.07;;
27642;SDS011;15053;48.618;10.024;2022-09-30T05:57:15;85.72;;;9.68;;
27642;SDS011;15053;48.618;10.024;2022-09-30T05:59:42;29.20;;;7.63;;
27642;SDS011;15053;48.618;10.024;2022-09-30T06:02:09;56.20;;;7.80;;
27642;SDS011;15053;48.618;10.024;2022-09-30T06:04:36;60.33;;;9.65;;
27642;SDS011;15053;48.618;10.024;2022-09-30T06:07:02;76.82;;;10.65;;
27642;SDS011;15053;48.618;10.024;2022-09-30T06:09:35;94.55;;;13.77;;
27642;SDS011;15053;48.618;10.024;2022-09-30T06:12:02;59.33;;;11.23;;
27642;SDS011;15053;48.618;10.024;2022-09-30T06:14:28;40.90;;;10.60;;
27642;SDS011;15053;48.618;10.024;2022-09-30T06:16:55;86.38;;;10.27;;
27642;SDS011;15053;48.618;10.024;2022-09-30T06:19:21;28.40;;;8.48;;
27642;SDS011;15053;48.618;10.024;2022-09-30T06:21:48;41.35;;;9.30;;
27642;SDS011;15053;48.618;10.024;2022-09-30T06:24:14;30.50;;;9.93;;
27642;SDS011;15053;48.618;10.024;2022-09-30T06:26:40;26.27;;;10.82;;
27642;SDS011;15053;48.618;10.024;2022-09-30T06:29:08;24.52;;;8.63;;
27642;SDS011;15053;48.618;10.024;2022-09-30T06:31:34;32.60;;;7.72;;
27642;SDS011;15053;48.618;10.024;2022-09-30T06:34:01;91.22;;;11.10;;
27642;SDS011;15053;48.618;10.024;2022-09-30T06:36:27;44.15;;;10.43;;
27642;SDS011;15053;48.618;10.024;2022-09-30T06:38:54;66.68;;;11.95;;
27642;SDS011;15053;48.618;10.024;2022-09-30T06:41:20;35.47;;;9.55;;
27642;SDS011;15053;48.618;10.024;2022-09-30T06:43:50;60.05;;;11.20;;
27642;SDS011;15053;48.618;10.024;2022-09-30T06:46:25;84.07;;;12.15;;
27642;SDS011;15053;48.618;10.024;2022-09-30T06:51:43;72.07;;;8.68;;
27642;SDS011;15053;48.618;10.024;2022-09-30T06:54:09;71.30;;;4.88;;
27642;SDS011;15053;48.618;10.024;2022-09-30T06:56:36;67.63;;;5.57;;
27642;SDS011;15053;48.618;10.024;2022-09-30T06:59:02;94.50;;;8.07;;
27642;SDS011;15053;48.618;10.024;2022-09-30T07:01:29;61.35;;;6.13;;
27642;SDS011;15053;48.618;10.024;2022-09-30T07:03:56;48.65;;;4.97;;
27642;SDS011;15053;48.618;10.024;2022-09-30T07:06:24;65.25;;;4.85;;
27642;SDS011;15053;48.618;10.024;2022-09-30T07:08:53;58.63;;;5.63;;
27642;SDS011;15053;48.618;10.024;2022-09-30T07:11:21;55.55;;;5.85;;
27642;SDS011;15053;48.618;10.024;2022-09-30T07:13:49;92.72;;;7.25;;
27642;SDS011;15053;48.618;10.024;2022-09-30T07:16:16;80.10;;;6.07;;
27642;SDS011;15053;48.618;10.024;2022-09-30T07:18:44;59.67;;;6.63;;
27642;SDS011;15053;48.618;10.024;2022-09-30T07:21:12;74.43;;;6.35;;
27642;SDS011;15053;48.618;10.024;2022-09-30T07:23:41;84.18;;;6.28;;
27642;SDS011;15053;48.618;10.024;2022-09-30T07:26:17;71.63;;;6.32;;
27642;SDS011;15053;48.618;10.024;2022-09-30T07:28:45;28.00;;;5.22;;
27642;SDS011;15053;48.618;10.024;2022-09-30T07:31:13;82.68;;;6.97;;
27642;SDS011;15053;48.618;10.024;2022-09-30T07:34:00;94.30;;;7.78;;
27642;SDS011;15053;48.618;10.024;2022-09-30T07:36:28;60.47;;;7.60;;
27642;SDS011;15053;48.618;10.024;2022-09-30T07:38:59;82.68;;;7.78;;
27642;SDS011;15053;48.618;10.024;2022-09-30T07:41:31;21.10;;;5.40;;
27642;SDS011;15053;48.618;10.024;2022-09-30T07:43:57;21.60;;;6.45;;
27642;SDS011;15053;48.618;10.024;2022-09-30T07:46:27;46.17;;;6.55;;
27642;SDS011;15053;48.618;10.024;2022-09-30T07:48:57;42.72;;;6.88;;
27642;SDS011;15053;48.618;10.024;2022-09-30T07:51:28;29.90;;;7.10;;
27642;SDS011;15053;48.618;10.024;2022-09-30T07:53:58;18.77;;;7.45;;
27642;SDS011;15053;48.618;10.024;2022-09-30T07:56:26;25.48;;;7.85;;
27642;SDS011;15053;48.618;10.024;2022-09-30T07:59:14;19.65;;;8.50;;
27642;SDS011;15053;48.618;10.024;2022-09-30T08:01:41;21.88;;;9.27;;
27642;SDS011;15053;48.618;10.024;2022-09-30T08:04:08;28.40;;;8.02;;
27642;SDS011;15053;48.618;10.024;2022-09-30T08:06:41;29.10;;;9.10;;
27642;SDS011;15053;48.618;10.024;2022-09-30T08:09:10;27.85;;;10.10;;
27642;SDS011;15053;48.618;10.024;2022-09-30T08:11:38;28.13;;;10.13;;
27642;SDS011;15053;48.618;10.024;2022-09-30T08:14:04;38.05;;;9.23;;
27642;SDS011;15053;48.618;10.024;2022-09-30T08:16:31;38.92;;;10.23;;
27642;SDS011;15053;48.618;10.024;2022-09-30T08:18:59;24.45;;;9.63;;
27642;SDS011;15053;48.618;10.024;2022-09-30T08:21:26;30.50;;;9.95;;
27642;SDS011;15053;48.618;10.024;2022-09-30T08:23:54;39.45;;;9.73;;
27642;SDS011;15053;48.618;10.024;2022-09-30T08:26:20;41.75;;;9.65;;
27642;SDS011;15053;48.618;10.024;2022-09-30T08:28:47;43.38;;;10.75;;
27642;SDS011;15053;48.618;10.024;2022-09-30T08:31:14;52.55;;;9.50;;
27642;SDS011;15053;48.618;10.024;2022-09-30T08:33:42;23.98;;;9.82;;
27642;SDS011;15053;48.618;10.024;2022-09-30T08:36:13;41.60;;;10.38;;
27642;SDS011;15053;48.618;10.024;2022-09-30T08:38:43;45.88;;;10.05;;
27642;SDS011;15053;48.618;10.024;2022-09-30T08:41:13;58.65;;;11.25;;
27642;SDS011;15053;48.618;10.024;2022-09-30T08:46:41;31.02;;;11.35;;
27642;SDS011;15053;48.618;10.024;2022-09-30T08:49:56;23.75;;;11.38;;
27642;SDS011;15053;48.618;10.024;2022-09-30T08:52:26;28.65;;;11.90;;
27642;SDS011;15053;48.618;10.024;2022-09-30T08:55:24;28.20;;;12.15;;
27642;SDS011;15053;48.618;10.024;2022-09-30T08:57:54;33.50;;;12.80;;
27642;SDS011;15053;48.618;10.024;2022-09-30T09:00:23;33.95;;;13.40;;
27642;SDS011;15053;48.618;10.024;2022-09-30T09:02:56;28.98;;;13.38;;
27642;SDS011;15053;48.618;10.024;2022-09-30T09:08:00;21.88;;;11.27;;
27642;SDS011;15053;48.618;10.024;2022-09-30T09:10:44;24.45;;;11.25;;
27642;SDS011;15053;48.618;10.024;2022-09-30T09:19:02;24.00;;;11.95;;
27642;SDS011;15053;48.618;10.024;2022-09-30T09:21:50;27.90;;;12.40;;
27642;SDS011;15053;48.618;10.024;2022-09-30T09:24:21;25.25;;;13.57;;
27642;SDS011;15053;48.618;10.024;2022-09-30T09:26:52;28.37;;;13.63;;
27642;SDS011;15053;48.618;10.024;2022-09-30T09:32:14;22.30;;;12.70;;
27642;SDS011;15053;48.618;10.024;2022-09-30T09:34:43;22.13;;;11.98;;
27642;SDS011;15053;48.618;10.024;2022-09-30T09:40:13;19.80;;;11.68;;
27642;SDS011;15053;48.618;10.024;2022-09-30T09:45:40;19.45;;;11.50;;
27642;SDS011;15053;48.618;10.024;2022-09-30T09:48:12;24.40;;;13.23;;
27642;SDS011;15053;48.618;10.024;2022-09-30T09:51:02;22.63;;;12.60;;
27642;SDS011;15053;48.618;10.024;2022-09-30T09:56:09;23.98;;;13.00;;
27642;SDS011;15053;48.618;10.024;2022-09-30T09:59:02;25.42;;;13.70;;
27642;SDS011;15053;48.618;10.024;2022-09-30T10:01:40;25.45;;;14.52;;
27642;SDS011;15053;48.618;10.024;2022-09-30T10:04:17;28.92;;;15.15;;
27642;SDS011;15053;48.618;10.024;2022-09-30T10:14:33;28.13;;;14.32;;
27642;SDS011;15053;48.618;10.024;2022-09-30T10:17:03;27.30;;;14.48;;
27642;SDS011;15053;48.618;10.024;2022-09-30T10:19:32;30.25;;;16.80;;
27642;SDS011;15053;48.618;10.024;2022-09-30T10:24:36;27.45;;;15.00;;
27642;SDS011;15053;48.618;10.024;2022-09-30T10:27:04;30.05;;;15.18;;
27642;SDS011;15053;48.618;10.024;2022-09-30T10:29:54;26.85;;;15.00;;
27642;SDS011;15053;48.618;10.024;2022-09-30T10:32:21;33.38;;;16.75;;
27642;SDS011;15053;48.618;10.024;2022-09-30T10:34:54;33.97;;;17.40;;
27642;SDS011;15053;48.618;10.024;2022-09-30T10:37:28;32.13;;;15.75;;
27642;SDS011;15053;48.618;10.024;2022-09-30T10:39:59;35.53;;;17.98;;
27642;SDS011;15053;48.618;10.024;2022-09-30T10:42:28;32.20;;;17.20;;
27642;SDS011;15053;48.618;10.024;2022-09-30T10:45:03;28.33;;;16.05;;
27642;SDS011;15053;48.618;10.024;2022-09-30T10:47:36;25.05;;;16.02;;
27642;SDS011;15053;48.618;10.024;2022-09-30T10:50:10;28.55;;;16.40;;
27642;SDS011;15053;48.618;10.024;2022-09-30T10:52:46;26.27;;;15.15;;
27642;SDS011;15053;48.618;10.024;2022-09-30T10:57:47;30.25;;;15.52;;
27642;SDS011;15053;48.618;10.024;2022-09-30T11:00:17;27.65;;;15.75;;
27642;SDS011;15053;48.618;10.024;2022-09-30T11:02:53;27.58;;;15.93;;
27642;SDS011;15053;48.618;10.024;2022-09-30T11:08:01;28.60;;;16.58;;
27642;SDS011;15053;48.618;10.024;2022-09-30T11:18:35;27.42;;;16.75;;
27642;SDS011;15053;48.618;10.024;2022-09-30T11:21:09;33.08;;;17.80;;
27642;SDS011;15053;48.618;10.024;2022-09-30T11:23:58;30.25;;;17.27;;
27642;SDS011;15053;48.618;10.024;2022-09-30T11:29:30;33.40;;;17.50;;
27642;SDS011;15053;48.618;10.024;2022-09-30T11:34:48;33.05;;;17.48;;
27642;SDS011;15053;48.618;10.024;2022-09-30T11:43:13;30.65;;;19.25;;
27642;SDS011;15053;48.618;10.024;2022-09-30T11:54:28;24.60;;;14.63;;
27642;SDS011;15053;48.618;10.024;2022-09-30T11:59:38;31.40;;;17.40;;
27642;SDS011;15053;48.618;10.024;2022-09-30T12:02:37;24.77;;;15.32;;
27642;SDS011;15053;48.618;10.024;2022-09-30T12:10:58;24.17;;;13.80;;
27642;SDS011;15053;48.618;10.024;2022-09-30T12:13:36;17.90;;;11.48;;
27642;SDS011;15053;48.618;10.024;2022-09-30T12:16:08;22.85;;;12.13;;
27642;SDS011;15053;48.618;10.024;2022-09-30T12:18:40;20.77;;;13.07;;
27642;SDS011;15053;48.618;10.024;2022-09-30T12:23:59;18.58;;;12.32;;
27642;SDS011;15053;48.618;10.024;2022-09-30T12:26:29;18.27;;;11.82;;
27642;SDS011;15053;48.618;10.024;2022-09-30T12:28:58;18.98;;;12.23;;
27642;SDS011;15053;48.618;10.024;2022-09-30T12:32:03;21.17;;;13.15;;
27642;SDS011;15053;48.618;10.024;2022-09-30T12:48:07;19.83;;;12.52;;
27642;SDS011;15053;48.618;10.024;2022-09-30T12:50:47;20.15;;;12.48;;
27642;SDS011;15053;48.618;10.024;2022-09-30T12:53:19;19.48;;;11.90;;
27642;SDS011;15053;48.618;10.024;2022-09-30T12:55:51;18.13;;;11.75;;
27642;SDS011;15053;48.618;10.024;2022-09-30T12:58:23;18.75;;;11.95;;
27642;SDS011;15053;48.618;10.024;2022-09-30T13:06:17;18.77;;;12.38;;
27642;SDS011;15053;48.618;10.024;2022-09-30T13:11:32;19.65;;;12.38;;
27642;SDS011;15053;48.618;10.024;2022-09-30T13:14:10;15.55;;;10.43;;
27642;SDS011;15053;48.618;10.024;2022-09-30T13:17:24;14.85;;;10.75;;
27642;SDS011;15053;48.618;10.024;2022-09-30T13:19:43;15.27;;;10.88;;
27642;SDS011;15053;48.618;10.024;2022-09-30T13:32:45;13.20;;;10.25;;
27642;SDS011;15053;48.618;10.024;2022-09-30T13:40:40;12.65;;;9.25;;
27642;SDS011;15053;48.618;10.024;2022-09-30T13:49:04;13.32;;;10.15;;
27642;SDS011;15053;48.618;10.024;2022-09-30T13:51:39;14.23;;;10.63;;
27642;SDS011;15053;48.618;10.024;2022-09-30T13:54:17;13.55;;;10.25;;
27642;SDS011;15053;48.618;10.024;2022-09-30T13:56:57;16.25;;;11.15;;
27642;SDS011;15053;48.618;10.024;2022-09-30T14:16:31;14.80;;;10.88;;
27642;SDS011;15053;48.618;10.024;2022-09-30T14:22:03;13.60;;;9.95;;
27642;SDS011;15053;48.618;10.024;2022-09-30T14:24:32;13.27;;;9.38;;
27642;SDS011;15053;48.618;10.024;2022-09-30T14:30:02;10.98;;;8.65;;
27642;SDS011;15053;48.618;10.024;2022-09-30T14:35:06;12.15;;;9.05;;
27642;SDS011;15053;48.618;10.024;2022-09-30T14:37:40;10.93;;;8.93;;
27642;SDS011;15053;48.618;10.024;2022-09-30T14:42:40;11.07;;;8.07;;
27642;SDS011;15053;48.618;10.024;2022-09-30T14:45:26;10.68;;;8.68;;
27642;SDS011;15053;48.618;10.024;2022-09-30T14:47:58;12.40;;;9.40;;
27642;SDS011;15053;48.618;10.024;2022-09-30T14:50:34;11.93;;;8.85;;
27642;SDS011;15053;48.618;10.024;2022-09-30T14:53:03;13.10;;;10.23;;
27642;SDS011;15053;48.618;10.024;2022-09-30T14:55:31;10.93;;;8.90;;
27642;SDS011;15053;48.618;10.024;2022-09-30T15:00:46;12.30;;;9.48;;
27642;SDS011;15053;48.618;10.024;2022-09-30T15:03:15;13.07;;;9.43;;
27642;SDS011;15053;48.618;10.024;2022-09-30T15:05:42;10.65;;;8.55;;
27642;SDS011;15053;48.618;10.024;2022-09-30T15:08:09;11.65;;;8.73;;
27642;SDS011;15053;48.618;10.024;2022-09-30T15:10:37;10.18;;;8.00;;
27642;SDS011;15053;48.618;10.024;2022-09-30T15:13:12;9.85;;;8.18;;
27642;SDS011;15053;48.618;10.024;2022-09-30T15:15:40;11.40;;;8.07;;
27642;SDS011;15053;48.618;10.024;2022-09-30T15:18:22;10.25;;;8.10;;
27642;SDS011;15053;48.618;10.024;2022-09-30T15:20:54;8.65;;;7.18;;
27642;SDS011;15053;48.618;10.024;2022-09-30T15:23:25;7.93;;;6.90;;
27642;SDS011;15053;48.618;10.024;2022-09-30T15:28:22;9.02;;;7.28;;
27642;SDS011;15053;48.618;10.024;2022-09-30T15:30:50;7.45;;;6.65;;
27642;SDS011;15053;48.618;10.024;2022-09-30T15:33:20;7.68;;;6.75;;
27642;SDS011;15053;48.618;10.024;2022-09-30T15:35:49;8.87;;;7.90;;
27642;SDS011;15053;48.618;10.024;2022-09-30T15:38:19;7.82;;;7.03;;
27642;SDS011;15053;48.618;10.024;2022-09-30T15:40:52;8.13;;;7.07;;
27642;SDS011;15053;48.618;10.024;2022-09-30T15:43:34;8.65;;;7.75;;
27642;SDS011;15053;48.618;10.024;2022-09-30T15:48:43;9.68;;;8.68;;
27642;SDS011;15053;48.618;10.024;2022-09-30T15:53:56;11.82;;;9.60;;
27642;SDS011;15053;48.618;10.024;2022-09-30T15:56:32;9.77;;;8.77;;
27642;SDS011;15053;48.618;10.024;2022-09-30T16:04:09;9.85;;;8.35;;
27642;SDS011;15053;48.618;10.024;2022-09-30T16:06:50;9.77;;;8.73;;
27642;SDS011;15053;48.618;10.024;2022-09-30T16:11:58;12.52;;;9.75;;
27642;SDS011;15053;48.618;10.024;2022-09-30T16:14:29;10.60;;;9.20;;
27642;SDS011;15053;48.618;10.024;2022-09-30T16:16:59;13.68;;;9.93;;
27642;SDS011;15053;48.618;10.024;2022-09-30T16:19:28;14.05;;;11.10;;
27642;SDS011;15053;48.618;10.024;2022-09-30T16:21:55;14.25;;;9.93;;
27642;SDS011;15053;48.618;10.024;2022-09-30T16:26:49;14.10;;;10.07;;
27642;SDS011;15053;48.618;10.024;2022-09-30T16:29:17;13.70;;;10.00;;
27642;SDS011;15053;48.618;10.024;2022-09-30T16:31:44;13.55;;;10.63;;
27642;SDS011;15053;48.618;10.024;2022-09-30T16:36:50;16.75;;;11.35;;
27642;SDS011;15053;48.618;10.024;2022-09-30T16:39:18;17.23;;;11.65;;
27642;SDS011;15053;48.618;10.024;2022-09-30T16:41:45;15.95;;;11.23;;
27642;SDS011;15053;48.618;10.024;2022-09-30T16:44:12;22.13;;;11.43;;
27642;SDS011;15053;48.618;10.024;2022-09-30T16:46:38;16.45;;;11.80;;
27642;SDS011;15053;48.618;10.024;2022-09-30T16:49:15;14.07;;;11.23;;
27642;SDS011;15053;48.618;10.024;2022-09-30T16:51:43;15.88;;;11.60;;
27642;SDS011;15053;48.618;10.024;2022-09-30T16:54:10;17.45;;;12.07;;
27642;SDS011;15053;48.618;10.024;2022-09-30T16:56:37;18.85;;;12.77;;
27642;SDS011;15053;48.618;10.024;2022-09-30T16:59:13;25.13;;;15.65;;
27642;SDS011;15053;48.618;10.024;2022-09-30T17:01:41;23.27;;;14.93;;
27642;SDS011;15053;48.618;10.024;2022-09-30T17:04:09;23.48;;;14.07;;
27642;SDS011;15053;48.618;10.024;2022-09-30T17:06:42;23.65;;;14.50;;
27642;SDS011;15053;48.618;10.024;2022-09-30T17:09:08;24.88;;;15.15;;
27642;SDS011;15053;48.618;10.024;2022-09-30T17:11:35;25.98;;;14.70;;
27642;SDS011;15053;48.618;10.024;2022-09-30T17:14:03;23.88;;;14.27;;
27642;SDS011;15053;48.618;10.024;2022-09-30T17:16:30;25.45;;;14.23;;
27642;SDS011;15053;48.618;10.024;2022-09-30T17:18:58;25.63;;;14.50;;
27642;SDS011;15053;48.618;10.024;2022-09-30T17:21:25;26.88;;;15.13;;
27642;SDS011;15053;48.618;10.024;2022-09-30T17:23:53;26.42;;;14.68;;
27642;SDS011;15053;48.618;10.024;2022-09-30T17:26:20;28.05;;;15.18;;
27642;SDS011;15053;48.618;10.024;2022-09-30T17:28:46;26.60;;;14.70;;
27642;SDS011;15053;48.618;10.024;2022-09-30T17:31:13;25.35;;;14.75;;
27642;SDS011;15053;48.618;10.024;2022-09-30T17:33:40;30.52;;;16.02;;
27642;SDS011;15053;48.618;10.024;2022-09-30T17:36:07;25.65;;;15.02;;
27642;SDS011;15053;48.618;10.024;2022-09-30T17:38:36;26.05;;;15.18;;
27642;SDS011;15053;48.618;10.024;2022-09-30T17:41:03;27.52;;;15.82;;
27642;SDS011;15053;48.618;10.024;2022-09-30T17:43:49;33.20;;;15.30;;
27642;SDS011;15053;48.618;10.024;2022-09-30T17:46:17;22.23;;;14.13;;
27642;SDS011;15053;48.618;10.024;2022-09-30T17:48:46;28.80;;;16.13;;
27642;SDS011;15053;48.618;10.024;2022-09-30T17:51:13;28.45;;;16.77;;
27642;SDS011;15053;48.618;10.024;2022-09-30T17:53:43;27.80;;;15.32;;
27642;SDS011;15053;48.618;10.024;2022-09-30T17:56:13;24.23;;;13.80;;
27642;SDS011;15053;48.618;10.024;2022-09-30T17:58:45;24.15;;;14.05;;
27642;SDS011;15053;48.618;10.024;2022-09-30T18:01:14;29.42;;;16.98;;
27642;SDS011;15053;48.618;10.024;2022-09-30T18:03:42;30.45;;;16.55;;
27642;SDS011;15053;48.618;10.024;2022-09-30T18:06:10;28.48;;;15.73;;